Terminal Aerodrome Forecast
Issued by NWS Charleston, WV

Current Version | Previous Version | Graphics & Text | Print | Product List | Glossary On
Versions: 1 2 3 4 5 6 7 8 9 10 11 12 13 14 15 16 17 18 19 20 21 22 23 24 25 26
000
FTUS41 KRLX 040234 AAA
TAFPKB
TAF AMD
KPKB 040234Z 0403/0424 VRB03KT 6SM HZ SCT100
     FM040400 00000KT 4SM BR SCT060
     FM040600 00000KT 1 1/2SM BR SCT001
     FM040900 00000KT 1/2SM FG BKN001
     FM041300 00000KT 4SM BR SCT002
     FM041600 VRB03KT P6SM VCTS BKN035CB=

USA.gov is the U.S. government's official web portal to all federal, state and local government web resources and services.